Time;durP1;ratioP1;P1;durP2;ratioP2;P2;SDS_P1;SDS_P2;PMS_P1;PMS_P2;Temp;Humidity;BMP_temperature;BMP_pressure;BME280_temperature;BME280_humidity;BME280_pressure;Samples;Min_cycle;Max_cycle;Signal;HPM_P1;HPM_P2
2022/07/18 00:01:59;;;;;;;7.35;5.88;;;17.80;99.90;;;;;;5268241;28;20059;-73
2022/07/18 00:04:30;;;;;;;7.95;5.85;;;17.70;99.90;;;;;;5268486;28;20488;-73
2022/07/18 00:07:02;;;;;;;7.10;6.07;;;17.50;99.90;;;;;;5268497;28;20021;-73
2022/07/18 00:09:32;;;;;;;6.25;5.65;;;17.50;99.90;;;;;;5268323;28;20028;-72
2022/07/18 00:12:05;;;;;;;7.03;5.50;;;17.60;99.90;;;;;;5268352;28;20073;-72
2022/07/18 00:14:36;;;;;;;5.72;5.10;;;18.00;99.90;;;;;;5268292;28;20056;-73
2022/07/18 00:17:08;;;;;;;8.50;6.00;;;17.80;99.90;;;;;;5266931;28;20518;-74
2022/07/18 00:19:39;;;;;;;7.70;6.47;;;17.50;99.90;;;;;;5268322;28;20027;-72
2022/07/18 00:22:10;;;;;;;8.43;6.30;;;17.40;99.90;;;;;;5268312;28;20028;-75
2022/07/18 00:24:41;;;;;;;7.03;5.95;;;17.30;99.90;;;;;;5268069;28;20024;-73
2022/07/18 00:27:12;;;;;;;6.97;6.28;;;17.30;99.90;;;;;;5268234;28;20078;-73
2022/07/18 00:29:43;;;;;;;8.32;6.25;;;17.10;99.90;;;;;;5268125;28;20357;-72
2022/07/18 00:32:14;;;;;;;7.82;6.85;;;17.30;99.90;;;;;;5268192;28;20070;-73
2022/07/18 00:34:44;;;;;;;18.08;7.22;;;17.50;99.90;;;;;;5267873;28;20024;-72
2022/07/18 00:37:15;;;;;;;11.70;6.60;;;17.30;99.90;;;;;;5268270;28;20381;-78
2022/07/18 00:39:46;;;;;;;6.45;5.43;;;17.40;99.90;;;;;;5268163;28;20059;-78
2022/07/18 00:42:17;;;;;;;8.90;6.57;;;17.30;99.90;;;;;;5266851;28;20490;-73
2022/07/18 00:44:53;;;;;;;8.40;6.32;;;17.20;99.90;;;;;;5268223;28;20031;-72
2022/07/18 00:47:24;;;;;;;8.02;6.30;;;17.30;99.90;;;;;;5268152;28;20074;-73
2022/07/18 00:49:55;;;;;;;6.93;6.18;;;17.30;99.90;;;;;;5268289;28;20081;-72
2022/07/18 00:52:26;;;;;;;7.63;5.47;;;17.40;99.90;;;;;;5268273;28;20024;-73
2022/07/18 00:54:57;;;;;;;6.80;5.97;;;17.40;99.90;;;;;;5268341;28;20028;-75
2022/07/18 00:57:28;;;;;;;8.60;6.25;;;17.30;99.90;;;;;;5268556;28;20115;-71
2022/07/18 01:02:48;;;;;;;7.53;5.93;;;17.40;99.90;;;;;;5272683;28;20392;-72
2022/07/18 01:05:19;;;;;;;6.85;6.13;;;17.20;99.90;;;;;;5271859;28;20024;-72
2022/07/18 01:07:54;;;;;;;8.45;6.43;;;17.10;99.90;;;;;;5272238;28;20078;-77
2022/07/18 01:10:25;;;;;;;8.10;6.45;;;17.00;99.90;;;;;;5272012;28;20830;-73
2022/07/18 01:12:56;;;;;;;7.35;6.63;;;17.10;99.90;;;;;;5271856;28;20024;-72
2022/07/18 01:15:27;;;;;;;7.63;6.93;;;17.00;99.90;;;;;;5271854;28;20028;-73
2022/07/18 01:17:57;;;;;;;7.75;6.35;;;17.00;99.90;;;;;;5271995;28;20028;-72
2022/07/18 01:20:30;;;;;;;7.95;6.72;;;17.00;99.90;;;;;;5271898;28;20012;-73
2022/07/18 01:23:01;;;;;;;8.38;6.60;;;17.00;99.90;;;;;;5271585;28;20040;-77
2022/07/18 01:25:32;;;;;;;6.85;6.25;;;17.20;99.90;;;;;;5271491;28;20066;-73
2022/07/18 01:28:03;;;;;;;10.60;6.38;;;16.90;99.90;;;;;;5271664;28;20019;-73
2022/07/18 01:30:34;;;;;;;9.40;6.15;;;16.90;99.90;;;;;;5271350;28;20024;-73
2022/07/18 01:33:05;;;;;;;6.47;5.85;;;17.20;99.90;;;;;;5271592;28;20028;-76
2022/07/18 01:35:35;;;;;;;8.70;6.35;;;17.10;99.90;;;;;;5271455;28;20085;-73
2022/07/18 01:38:06;;;;;;;6.40;5.80;;;17.10;99.90;;;;;;5271578;28;20031;-73
2022/07/18 01:40:37;;;;;;;6.85;5.28;;;16.80;99.90;;;;;;5271432;28;20032;-73
2022/07/18 01:43:08;;;;;;;6.60;5.68;;;16.60;99.90;;;;;;5271514;28;20028;-73
2022/07/18 01:45:39;;;;;;;8.30;6.10;;;16.70;99.90;;;;;;5271436;28;20039;-73
2022/07/18 01:48:10;;;;;;;7.90;5.85;;;17.00;99.90;;;;;;5271240;28;20064;-73
2022/07/18 01:50:41;;;;;;;7.35;6.20;;;16.80;99.90;;;;;;5271297;28;20024;-76
2022/07/18 01:53:13;;;;;;;6.18;5.57;;;17.10;99.90;;;;;;5271170;28;20085;-80
2022/07/18 01:55:43;;;;;;;7.18;5.40;;;17.00;99.90;;;;;;5271252;28;20127;-73
2022/07/18 01:58:14;;;;;;;5.93;5.20;;;17.00;99.90;;;;;;5271612;28;20634;-74
2022/07/18 02:00:45;;;;;;;6.10;5.20;;;17.10;99.90;;;;;;5271295;28;20069;-72
2022/07/18 02:03:16;;;;;;;7.57;6.13;;;17.00;99.90;;;;;;5271276;28;20028;-72
2022/07/18 02:05:47;;;;;;;9.98;6.72;;;16.60;99.90;;;;;;5271217;28;20024;-73
2022/07/18 02:08:18;;;;;;;6.85;6.15;;;16.70;99.90;;;;;;5271281;28;20024;-80
2022/07/18 02:10:49;;;;;;;7.05;6.38;;;16.60;99.90;;;;;;5270441;28;20106;-72
2022/07/18 02:13:20;;;;;;;10.63;6.50;;;16.70;99.90;;;;;;5271102;28;20361;-74
2022/07/18 02:15:55;;;;;;;9.73;5.80;;;16.70;99.90;;;;;;5270835;28;20165;-71
2022/07/18 02:18:26;;;;;;;9.02;6.15;;;16.70;99.90;;;;;;5270923;28;20039;-72
2022/07/18 02:20:56;;;;;;;8.00;6.35;;;16.60;99.90;;;;;;5270941;28;20020;-72
2022/07/18 02:23:28;;;;;;;8.07;6.85;;;16.60;99.90;;;;;;5270697;28;20056;-73
2022/07/18 02:25:58;;;;;;;9.30;6.20;;;16.70;99.90;;;;;;5270783;28;20501;-73
2022/07/18 02:28:29;;;;;;;6.50;5.90;;;16.60;99.90;;;;;;5270734;28;20028;-75
2022/07/18 02:31:00;;;;;;;6.75;5.70;;;16.70;99.90;;;;;;5270499;28;20088;-73
2022/07/18 02:33:32;;;;;;;6.65;5.18;;;16.80;99.90;;;;;;5270808;28;20032;-73
2022/07/18 02:36:03;;;;;;;6.07;5.40;;;16.80;99.90;;;;;;5270568;28;20414;-72
2022/07/18 02:38:33;;;;;;;9.93;6.05;;;16.80;99.90;;;;;;5270480;28;20495;-80
2022/07/18 02:41:04;;;;;;;5.88;5.28;;;16.60;99.90;;;;;;5270441;28;20051;-75
2022/07/18 02:43:35;;;;;;;8.25;6.05;;;16.50;99.90;;;;;;5270540;28;20023;-75
2022/07/18 02:46:06;;;;;;;6.07;5.47;;;16.50;99.90;;;;;;5270163;28;20019;-73
2022/07/18 02:48:37;;;;;;;8.00;6.07;;;16.60;99.90;;;;;;5270368;28;20115;-77
2022/07/18 02:51:08;;;;;;;8.35;5.10;;;16.30;99.90;;;;;;5270353;28;20037;-73
2022/07/18 02:53:38;;;;;;;9.35;6.28;;;16.50;99.90;;;;;;5270040;28;20099;-73
2022/07/18 02:56:09;;;;;;;7.25;6.00;;;16.60;99.90;;;;;;5270056;28;20110;-80
2022/07/18 02:58:40;;;;;;;12.45;6.15;;;16.50;99.90;;;;;;5270258;28;20073;-72
2022/07/18 03:01:11;;;;;;;13.30;6.32;;;16.50;99.90;;;;;;5269738;28;20047;-78
2022/07/18 03:03:42;;;;;;;9.18;6.15;;;16.60;99.90;;;;;;5270187;28;20060;-72
2022/07/18 03:06:13;;;;;;;9.57;6.40;;;16.50;99.90;;;;;;5270227;28;20564;-73
2022/07/18 03:08:44;;;;;;;9.82;6.20;;;16.30;99.90;;;;;;5269906;28;20112;-79
2022/07/18 03:11:15;;;;;;;9.70;6.35;;;16.20;99.90;;;;;;5269799;28;20031;-72
2022/07/18 03:13:45;;;;;;;12.35;6.13;;;16.20;99.90;;;;;;5269667;28;20036;-72
2022/07/18 03:16:16;;;;;;;7.18;6.18;;;16.30;99.90;;;;;;5269605;28;20040;-73
2022/07/18 03:18:47;;;;;;;7.32;6.45;;;16.30;99.90;;;;;;5269772;28;20066;-72
2022/07/18 03:21:18;;;;;;;9.93;6.05;;;16.50;99.90;;;;;;5268848;28;20028;-72
2022/07/18 03:23:49;;;;;;;7.05;5.95;;;16.50;99.90;;;;;;5269426;28;20020;-72
2022/07/18 03:26:20;;;;;;;8.57;5.68;;;16.70;99.90;;;;;;5269553;28;20057;-72
2022/07/18 03:28:51;;;;;;;6.70;6.07;;;16.50;99.90;;;;;;5269390;28;20032;-77
2022/07/18 03:31:22;;;;;;;8.48;5.85;;;16.40;99.90;;;;;;5269137;28;20032;-73
2022/07/18 03:33:53;;;;;;;8.35;4.97;;;16.60;99.90;;;;;;5269275;28;20028;-73
2022/07/18 03:36:24;;;;;;;6.97;6.10;;;16.80;99.90;;;;;;5269148;28;20028;-74
2022/07/18 03:38:55;;;;;;;9.65;5.80;;;16.90;99.90;;;;;;5269347;28;20028;-71
2022/07/18 03:41:26;;;;;;;9.80;6.05;;;16.50;99.90;;;;;;5269413;28;20027;-74
2022/07/18 03:43:57;;;;;;;6.95;6.28;;;16.50;99.90;;;;;;5269200;28;20107;-73
2022/07/18 03:46:29;;;;;;;7.88;6.00;;;16.60;99.90;;;;;;5268917;28;20056;-79
2022/07/18 03:49:00;;;;;;;7.88;6.07;;;16.70;99.90;;;;;;5269161;28;20020;-81
2022/07/18 03:51:32;;;;;;;7.40;5.90;;;16.90;99.90;;;;;;5267791;28;20034;-78
2022/07/18 03:54:03;;;;;;;7.10;5.90;;;16.90;99.90;;;;;;5268840;28;20027;-78
2022/07/18 03:56:34;;;;;;;6.55;5.40;;;17.10;99.90;;;;;;5269096;28;20032;-73
2022/07/18 03:59:05;;;;;;;8.00;5.35;;;17.00;99.90;;;;;;5268857;28;20098;-75
2022/07/18 04:01:35;;;;;;;6.88;5.20;;;17.00;99.90;;;;;;5268373;28;20051;-75
2022/07/18 04:04:07;;;;;;;9.70;6.63;;;17.20;99.90;;;;;;5268913;28;20024;-72
2022/07/18 04:06:37;;;;;;;7.10;5.82;;;17.10;99.90;;;;;;5267588;28;20461;-73
2022/07/18 04:09:08;;;;;;;7.10;5.45;;;17.40;99.90;;;;;;5268736;28;20024;-73
2022/07/18 04:11:39;;;;;;;7.13;6.05;;;17.60;99.90;;;;;;5268654;28;20028;-73
2022/07/18 04:14:10;;;;;;;6.38;5.25;;;17.80;99.90;;;;;;5268617;28;20429;-75
2022/07/18 04:16:41;;;;;;;6.50;5.70;;;17.80;99.90;;;;;;5268125;28;20035;-72
2022/07/18 04:19:11;;;;;;;7.20;5.57;;;17.80;99.90;;;;;;5268647;28;20069;-73
2022/07/18 04:21:43;;;;;;;5.88;5.35;;;17.90;99.90;;;;;;5268673;28;20021;-73
2022/07/18 04:24:14;;;;;;;6.88;5.60;;;18.00;99.90;;;;;;5268420;28;20020;-75
2022/07/18 04:26:44;;;;;;;7.70;5.43;;;18.10;99.90;;;;;;5268503;28;20100;-78
2022/07/18 04:29:15;;;;;;;11.77;6.53;;;18.20;99.90;;;;;;5268316;28;20020;-72
2022/07/18 04:31:46;;;;;;;8.55;5.93;;;18.50;99.90;;;;;;5268234;28;20019;-73
2022/07/18 04:34:17;;;;;;;7.78;5.60;;;18.90;99.90;;;;;;5268060;28;20353;-77
2022/07/18 04:36:48;;;;;;;11.65;5.80;;;18.60;99.90;;;;;;5268360;28;20081;-73
2022/07/18 04:39:19;;;;;;;8.35;6.40;;;19.00;99.90;;;;;;5268197;28;20108;-76
2022/07/18 04:41:50;;;;;;;7.43;5.65;;;19.10;99.90;;;;;;5268156;28;20592;-73
2022/07/18 04:44:21;;;;;;;7.35;5.60;;;19.30;99.90;;;;;;5268249;28;20480;-75
2022/07/18 04:46:51;;;;;;;7.80;6.10;;;19.80;99.90;;;;;;5268155;28;20016;-74
2022/07/18 04:49:24;;;;;;;11.43;6.53;;;20.30;99.90;;;;;;5268193;28;20467;-79
2022/07/18 04:51:55;;;;;;;9.18;6.55;;;21.00;99.90;;;;;;5268139;28;20020;-72
2022/07/18 04:54:26;;;;;;;9.32;6.40;;;21.40;99.90;;;;;;5268250;28;20025;-74
2022/07/18 04:56:56;;;;;;;11.25;6.97;;;21.10;99.90;;;;;;5267992;28;20492;-74
2022/07/18 04:59:27;;;;;;;14.20;7.32;;;21.20;99.90;;;;;;5267925;28;20107;-73
2022/07/18 05:01:58;;;;;;;12.57;6.20;;;21.60;99.90;;;;;;5267956;28;20051;-74
2022/07/18 05:04:29;;;;;;;11.45;5.65;;;21.90;99.90;;;;;;5268251;28;20107;-73
2022/07/18 05:07:00;;;;;;;13.60;6.00;;;22.00;99.90;;;;;;5266796;28;20468;-75
2022/07/18 05:09:31;;;;;;;15.65;6.10;;;22.40;99.90;;;;;;5268193;28;20446;-76
2022/07/18 05:12:02;;;;;;;11.55;6.35;;;22.30;99.90;;;;;;5268054;28;20051;-79
2022/07/18 05:14:33;;;;;;;11.43;5.28;;;22.70;99.90;;;;;;5267904;28;20141;-72
2022/07/18 05:17:03;;;;;;;7.95;4.15;;;22.80;99.90;;;;;;5267811;28;20446;-75
2022/07/18 05:19:34;;;;;;;7.53;3.70;;;23.40;99.90;;;;;;5266764;28;20044;-73
2022/07/18 05:22:05;;;;;;;6.63;3.15;;;23.40;99.90;;;;;;5267657;28;20024;-79
2022/07/18 05:24:36;;;;;;;10.82;3.10;;;23.50;99.90;;;;;;5267837;28;20410;-79
2022/07/18 05:27:07;;;;;;;7.22;4.03;;;23.50;99.90;;;;;;5267887;28;20028;-75
2022/07/18 05:29:37;;;;;;;7.70;3.67;;;23.70;99.90;;;;;;5267519;28;20016;-72
2022/07/18 05:32:08;;;;;;;6.05;3.65;;;23.70;99.90;;;;;;5267924;28;20061;-72
2022/07/18 05:34:39;;;;;;;6.97;3.40;;;23.50;99.90;;;;;;5268036;28;20044;-77
2022/07/18 05:37:10;;;;;;;12.43;4.05;;;23.40;99.90;;;;;;5267811;28;20491;-74
2022/07/18 05:39:41;;;;;;;8.07;3.45;;;23.30;99.90;;;;;;5267674;28;20022;-76
2022/07/18 05:42:12;;;;;;;7.65;3.35;;;23.40;99.90;;;;;;5267668;28;20036;-77
2022/07/18 05:44:43;;;;;;;9.10;3.42;;;23.90;99.90;;;;;;5268129;28;20103;-74
2022/07/18 05:47:14;;;;;;;5.97;3.53;;;24.10;99.90;;;;;;5271452;28;20036;-79
2022/07/18 05:49:45;;;;;;;10.70;3.33;;;24.00;99.90;;;;;;5271770;28;20024;-75
2022/07/18 05:52:15;;;;;;;5.50;2.78;;;24.10;99.90;;;;;;5271443;28;20140;-74
2022/07/18 05:54:46;;;;;;;8.20;3.05;;;24.20;99.90;;;;;;5271265;28;20055;-74
2022/07/18 05:57:17;;;;;;;9.20;3.60;;;24.00;99.90;;;;;;5271215;28;20044;-74
2022/07/18 05:59:48;;;;;;;7.07;3.25;;;24.20;99.90;;;;;;5271105;28;20019;-74
2022/07/18 06:02:19;;;;;;;11.18;3.30;;;24.20;99.90;;;;;;5271177;28;20048;-73
2022/07/18 06:04:49;;;;;;;6.10;2.65;;;24.10;99.90;;;;;;5271424;28;20022;-74
2022/07/18 06:07:20;;;;;;;6.20;2.78;;;24.40;99.90;;;;;;5271423;28;20452;-75
2022/07/18 06:09:51;;;;;;;6.82;2.50;;;24.10;99.90;;;;;;5271313;28;20051;-75
2022/07/18 06:12:22;;;;;;;7.10;3.10;;;23.90;99.90;;;;;;5270922;28;20022;-79
2022/07/18 06:14:53;;;;;;;9.45;4.05;;;23.90;99.90;;;;;;5270821;28;20376;-79
2022/07/18 06:17:24;;;;;;;9.82;3.72;;;24.30;99.90;;;;;;5270923;28;20058;-74
2022/07/18 06:19:56;;;;;;;9.10;3.95;;;24.20;99.90;;;;;;5271147;28;20017;-73
2022/07/18 06:22:27;;;;;;;13.63;3.33;;;24.50;99.90;;;;;;5271028;28;20055;-78
2022/07/18 06:24:58;;;;;;;7.95;2.80;;;25.10;99.90;;;;;;5270775;28;20038;-72
2022/07/18 06:27:29;;;;;;;9.10;3.42;;;25.40;99.90;;;;;;5270494;28;20028;-73
2022/07/18 06:30:00;;;;;;;8.85;3.10;;;25.90;99.90;;;;;;5270441;28;20039;-77
2022/07/18 06:32:31;;;;;;;7.78;3.03;;;25.10;99.90;;;;;;5270420;28;20062;-77
2022/07/18 06:35:02;;;;;;;6.47;2.17;;;25.10;99.90;;;;;;5270584;28;20043;-76
2022/07/18 06:37:33;;;;;;;6.75;2.55;;;25.50;99.90;;;;;;5270549;28;20073;-73
2022/07/18 06:40:04;;;;;;;9.10;2.30;;;25.70;99.90;;;;;;5270285;28;20058;-79
2022/07/18 06:42:35;;;;;;;5.28;2.03;;;24.90;99.90;;;;;;5270161;28;20066;-80
2022/07/18 06:45:07;;;;;;;4.07;1.85;;;24.90;99.90;;;;;;5270094;28;20448;-73
2022/07/18 06:47:38;;;;;;;9.05;2.28;;;24.90;99.90;;;;;;5270213;28;20027;-74
2022/07/18 06:50:13;;;;;;;8.25;2.90;;;25.50;99.90;;;;;;5270372;28;20770;-74
2022/07/18 06:52:45;;;;;;;8.93;2.60;;;25.10;99.90;;;;;;5270051;28;20472;-73
2022/07/18 06:55:16;;;;;;;8.40;2.40;;;25.10;99.90;;;;;;5269975;28;20460;-76
2022/07/18 06:57:47;;;;;;;7.93;2.92;;;25.00;99.90;;;;;;5269760;28;20031;-73
2022/07/18 07:00:18;;;;;;;5.45;2.50;;;25.10;99.90;;;;;;5269665;28;20052;-77
2022/07/18 07:02:49;;;;;;;5.82;2.65;;;25.30;99.90;;;;;;5270150;28;20032;-72
2022/07/18 07:05:21;;;;;;;5.38;2.70;;;24.90;99.90;;;;;;5270058;28;20031;-74
2022/07/18 07:07:52;;;;;;;7.53;3.17;;;24.70;99.90;;;;;;5269953;28;20031;-79
2022/07/18 07:10:23;;;;;;;8.20;4.07;;;24.70;99.90;;;;;;5269817;28;20021;-79
2022/07/18 07:12:53;;;;;;;8.80;4.00;;;24.60;99.90;;;;;;5269772;28;20111;-73
2022/07/18 07:15:24;;;;;;;11.05;3.85;;;24.60;99.90;;;;;;5269362;28;20024;-73
2022/07/18 07:17:55;;;;;;;10.88;3.38;;;24.60;99.90;;;;;;5269935;28;20031;-74
2022/07/18 07:20:26;;;;;;;10.18;2.60;;;24.80;99.90;;;;;;5269737;28;20020;-73
2022/07/18 07:22:57;;;;;;;11.00;2.60;;;24.60;99.90;;;;;;5269793;28;20106;-73
2022/07/18 07:25:28;;;;;;;9.40;2.67;;;24.80;99.90;;;;;;5269325;28;20023;-79
2022/07/18 07:28:00;;;;;;;12.38;3.72;;;25.40;99.90;;;;;;5269523;28;20024;-78
2022/07/18 07:30:31;;;;;;;12.10;2.95;;;26.10;99.90;;;;;;5269168;28;20485;-73
2022/07/18 07:33:03;;;;;;;6.60;2.30;;;25.70;99.90;;;;;;5269188;28;20059;-74
2022/07/18 07:35:34;;;;;;;10.70;2.50;;;25.60;99.90;;;;;;5269108;28;20039;-73
2022/07/18 07:38:04;;;;;;;10.90;2.83;;;25.20;99.90;;;;;;5269271;28;20464;-79
2022/07/18 07:40:35;;;;;;;9.88;2.60;;;25.60;99.90;;;;;;5267665;28;20043;-77
2022/07/18 07:43:11;;;;;;;9.60;2.47;;;25.80;99.90;;;;;;5269008;28;20024;-77
2022/07/18 07:45:48;;;;;;;7.70;2.25;;;25.50;99.90;;;;;;5268889;28;20859;-79
2022/07/18 07:48:19;;;;;;;14.18;3.25;;;25.80;99.90;;;;;;5269146;28;20021;-79
2022/07/18 07:50:50;;;;;;;10.75;2.03;;;26.40;99.90;;;;;;5268938;28;20044;-74
2022/07/18 07:53:21;;;;;;;8.75;1.88;;;26.20;99.90;;;;;;5268950;28;20107;-74
2022/07/18 07:55:52;;;;;;;8.52;1.88;;;26.20;99.90;;;;;;5268669;28;20111;-78
2022/07/18 07:58:23;;;;;;;10.75;2.40;;;25.80;99.90;;;;;;5268795;28;20060;-76
2022/07/18 08:00:54;;;;;;;7.95;1.80;;;25.80;99.90;;;;;;5268461;28;20040;-74
2022/07/18 08:03:25;;;;;;;8.07;1.90;;;25.40;99.90;;;;;;5267445;28;20472;-74
2022/07/18 08:05:56;;;;;;;9.70;2.60;;;25.20;99.90;;;;;;5268741;28;20013;-73
2022/07/18 08:08:27;;;;;;;9.35;2.40;;;25.00;99.90;;;;;;5268010;28;20026;-79
2022/07/18 08:10:57;;;;;;;6.72;1.80;;;24.80;99.90;;;;;;5268652;28;20042;-72
2022/07/18 08:13:28;;;;;;;7.82;1.67;;;25.50;99.90;;;;;;5268346;28;20503;-78
2022/07/18 08:15:59;;;;;;;9.98;1.90;;;26.00;99.90;;;;;;5257785;28;20117;-80
2022/07/18 08:18:30;;;;;;;9.40;1.83;;;26.20;99.90;;;;;;5268431;28;20055;-80
2022/07/18 08:21:01;;;;;;;6.63;2.33;;;25.60;99.90;;;;;;5268423;28;20125;-77
2022/07/18 08:23:31;;;;;;;12.13;2.22;;;26.00;99.90;;;;;;5268200;28;20091;-80
2022/07/18 08:26:03;;;;;;;7.90;2.22;;;26.50;99.90;;;;;;5267484;28;20387;-73
2022/07/18 08:28:33;;;;;;;7.97;2.30;;;26.80;99.90;;;;;;5268287;28;20024;-73
2022/07/18 08:31:04;;;;;;;8.98;1.90;;;26.00;99.90;;;;;;5268037;28;20384;-77
2022/07/18 08:33:35;;;;;;;14.48;2.65;;;26.10;99.90;;;;;;5268008;28;20361;-79
2022/07/18 08:36:08;;;;;;;8.68;1.88;;;26.50;99.90;;;;;;5268091;28;20032;-74
2022/07/18 08:38:39;;;;;;;12.50;1.70;;;26.60;99.90;;;;;;5256875;28;20107;-73
2022/07/18 08:41:10;;;;;;;6.13;1.55;;;26.50;99.90;;;;;;5259603;28;20418;-76
2022/07/18 08:43:41;;;;;;;13.40;1.70;;;26.30;99.90;;;;;;5268166;28;20082;-73
2022/07/18 08:46:12;;;;;;;15.52;2.35;;;26.40;99.90;;;;;;5267907;28;20059;-76
2022/07/18 08:48:43;;;;;;;7.93;1.60;;;26.70;99.90;;;;;;5256163;28;20028;-78
2022/07/18 08:51:14;;;;;;;9.52;1.88;;;27.40;99.90;;;;;;5250509;28;20515;-76
2022/07/18 08:53:51;;;;;;;6.57;1.70;;;26.70;99.90;;;;;;5262123;28;20095;-73
2022/07/18 08:56:23;;;;;;;12.05;1.73;;;26.00;99.90;;;;;;5264435;28;20097;-72
2022/07/18 08:58:54;;;;;;;10.80;2.10;;;26.00;99.90;;;;;;5246976;28;20063;-74
2022/07/18 09:01:25;;;;;;;6.53;1.50;;;26.10;99.90;;;;;;5246597;28;20048;-74
2022/07/18 09:04:14;;;;;;;8.60;2.42;;;26.10;99.90;;;;;;5246963;28;20031;-74
2022/07/18 09:06:52;;;;;;;11.00;2.10;;;26.50;99.90;;;;;;5246891;28;20024;-74
2022/07/18 09:09:23;;;;;;;12.52;2.05;;;26.20;99.90;;;;;;5246822;28;20025;-73
2022/07/18 09:11:58;;;;;;;7.32;1.52;;;26.20;99.90;;;;;;5259834;28;20036;-76
2022/07/18 09:14:40;;;;;;;9.43;1.40;;;26.20;99.90;;;;;;5247605;28;20070;-77
2022/07/18 09:17:14;;;;;;;8.82;2.20;;;25.90;99.90;;;;;;5260105;28;20531;-72
2022/07/18 09:20:11;;;;;;;10.63;2.10;;;25.40;99.90;;;;;;5268159;28;20021;-74
2022/07/18 09:22:49;;;;;;;8.05;2.45;;;25.80;99.90;;;;;;5270317;28;20035;-80
2022/07/18 09:25:22;;;;;;;13.45;1.55;;;26.30;99.90;;;;;;5269943;28;20044;-73
2022/07/18 09:27:53;;;;;;;7.32;1.63;;;26.40;99.90;;;;;;5270732;28;20103;-73
2022/07/18 09:30:26;;;;;;;6.00;1.67;;;26.10;99.90;;;;;;5270218;28;20020;-76
2022/07/18 09:33:03;;;;;;;7.72;1.83;;;26.00;99.90;;;;;;5271564;28;20036;-74
2022/07/18 09:35:42;;;;;;;9.23;1.75;;;26.00;99.90;;;;;;5271493;28;20115;-79
2022/07/18 09:38:28;;;;;;;5.33;1.80;;;25.90;99.90;;;;;;5271557;28;20062;-81
2022/07/18 09:40:59;;;;;;;7.60;1.80;;;26.00;99.90;;;;;;5271431;28;20029;-74
2022/07/18 09:43:38;;;;;;;8.00;1.23;;;26.60;99.90;;;;;;5271288;28;20498;-72
2022/07/18 09:46:09;;;;;;;7.40;1.98;;;26.20;99.90;;;;;;5271436;28;20021;-74
2022/07/18 09:48:39;;;;;;;10.02;2.05;;;26.70;99.90;;;;;;5271451;28;20495;-81
2022/07/18 09:51:10;;;;;;;9.15;1.00;;;26.50;99.90;;;;;;5271213;28;20031;-73
2022/07/18 09:53:43;;;;;;;4.75;1.50;;;26.20;99.90;;;;;;5271040;28;20081;-74
2022/07/18 09:56:23;;;;;;;7.20;1.48;;;26.20;99.90;;;;;;5271080;28;20039;-77
2022/07/18 09:58:56;;;;;;;10.80;1.98;;;25.90;99.90;;;;;;5271019;28;20103;-81
2022/07/18 10:01:28;;;;;;;9.88;1.80;;;26.90;99.90;;;;;;5270709;28;20056;-73
2022/07/18 10:04:00;;;;;;;6.25;1.70;;;27.20;99.90;;;;;;5270917;28;20028;-73
2022/07/18 10:06:31;;;;;;;10.68;1.60;;;26.90;99.90;;;;;;5270806;28;20071;-82
2022/07/18 10:09:02;;;;;;;9.52;1.58;;;27.10;99.90;;;;;;5270776;28;20024;-74
2022/07/18 10:11:33;;;;;;;7.18;1.60;;;26.00;99.90;;;;;;5270764;28;20077;-75
2022/07/18 10:14:04;;;;;;;5.85;1.50;;;26.40;99.90;;;;;;5270736;28;20059;-73
2022/07/18 10:16:35;;;;;;;3.45;0.90;;;26.70;99.90;;;;;;5270545;28;20064;-74
2022/07/18 10:19:06;;;;;;;6.82;1.23;;;26.30;99.90;;;;;;5270648;28;20020;-73
2022/07/18 10:21:37;;;;;;;16.88;2.00;;;26.50;99.90;;;;;;5270523;28;20422;-76
2022/07/18 10:24:08;;;;;;;8.32;1.55;;;26.40;99.90;;;;;;5270564;28;20020;-81
2022/07/18 10:26:39;;;;;;;4.32;1.67;;;26.40;99.90;;;;;;5270508;28;20027;-79
2022/07/18 10:29:15;;;;;;;4.25;0.90;;;27.00;99.90;;;;;;5270471;28;20020;-81
2022/07/18 10:32:07;;;;;;;8.85;1.10;;;27.10;99.90;;;;;;5269894;28;20081;-73
2022/07/18 10:34:39;;;;;;;6.03;1.20;;;26.80;99.90;;;;;;5270350;28;20432;-82
2022/07/18 10:37:11;;;;;;;8.65;2.00;;;26.70;99.90;;;;;;5270272;28;20032;-80
2022/07/18 10:39:44;;;;;;;11.23;1.48;;;26.40;99.90;;;;;;5270163;28;20424;-74
2022/07/18 10:42:18;;;;;;;7.63;1.92;;;26.10;99.90;;;;;;5270310;28;20082;-78
2022/07/18 10:44:49;;;;;;;6.47;1.30;;;26.20;99.90;;;;;;5270076;28;20020;-79
2022/07/18 10:47:21;;;;;;;7.47;1.20;;;25.90;99.90;;;;;;5270059;28;20073;-76
2022/07/18 10:50:00;;;;;;;5.68;1.25;;;26.10;99.90;;;;;;5269945;28;20036;-73
2022/07/18 10:52:32;;;;;;;8.85;1.35;;;26.70;99.90;;;;;;5269883;28;20094;-73
2022/07/18 10:55:03;;;;;;;8.88;1.20;;;26.80;99.90;;;;;;5269838;28;20051;-73
2022/07/18 10:58:06;;;;;;;4.90;1.05;;;27.40;99.90;;;;;;5269672;28;20040;-82
2022/07/18 11:00:39;;;;;;;6.45;0.95;;;26.50;99.90;;;;;;5261157;28;20055;-78
2022/07/18 11:03:11;;;;;;;6.13;1.17;;;26.30;99.90;;;;;;5269740;28;20035;-82
2022/07/18 11:05:49;;;;;;;3.65;0.95;;;26.50;99.90;;;;;;5269676;28;20693;-79
2022/07/18 11:08:24;;;;;;;6.72;1.20;;;26.40;99.90;;;;;;5269825;28;20024;-80
2022/07/18 11:10:55;;;;;;;5.82;0.95;;;27.20;99.90;;;;;;5269767;28;20027;-74
2022/07/18 11:13:29;;;;;;;8.93;1.02;;;26.80;99.90;;;;;;5269398;28;20380;-75
2022/07/18 11:16:07;;;;;;;6.20;1.70;;;26.80;99.90;;;;;;5269688;28;20522;-78
2022/07/18 11:18:43;;;;;;;5.97;1.80;;;27.20;99.90;;;;;;5269468;28;20020;-82
2022/07/18 11:21:27;;;;;;;8.15;1.60;;;26.80;99.90;;;;;;5269454;28;20114;-74
2022/07/18 11:24:08;;;;;;;10.73;2.42;;;26.50;99.90;;;;;;5269286;28;20032;-73
2022/07/18 11:26:45;;;;;;;5.55;1.40;;;27.10;99.90;;;;;;5269478;28;20023;-82
2022/07/18 11:29:18;;;;;;;4.45;0.80;;;26.90;99.90;;;;;;5269309;28;20039;-75
2022/07/18 11:31:54;;;;;;;3.58;1.20;;;27.20;99.90;;;;;;5268412;28;20024;-77
2022/07/18 11:34:26;;;;;;;5.03;1.27;;;27.30;99.90;;;;;;5269256;28;20036;-79
2022/07/18 11:36:58;;;;;;;8.20;1.40;;;27.40;99.90;;;;;;5269019;28;20107;-80
2022/07/18 11:39:30;;;;;;;8.38;1.55;;;27.00;99.90;;;;;;5269066;28;20016;-73
2022/07/18 11:42:02;;;;;;;4.93;1.02;;;27.00;99.90;;;;;;5268680;28;20039;-80
2022/07/18 11:44:33;;;;;;;6.80;1.38;;;27.00;99.90;;;;;;5268428;28;20392;-75
2022/07/18 11:47:10;;;;;;;4.50;1.25;;;27.40;99.90;;;;;;5268892;28;20031;-83
2022/07/18 11:49:54;;;;;;;8.05;1.10;;;27.20;99.90;;;;;;5268859;28;20048;-79
2022/07/18 11:52:25;;;;;;;4.57;0.80;;;27.50;99.90;;;;;;5268971;28;20502;-73
2022/07/18 11:54:56;;;;;;;6.32;1.00;;;27.20;99.90;;;;;;5268608;28;20093;-80
2022/07/18 11:57:28;;;;;;;5.40;0.73;;;27.10;99.90;;;;;;5268839;28;20097;-81
2022/07/18 12:00:00;;;;;;;5.07;0.70;;;27.00;99.90;;;;;;5268436;28;20052;-81
2022/07/18 12:03:05;;;;;;;6.72;1.08;;;27.10;99.90;;;;;;5267452;28;20542;-74
2022/07/18 12:05:50;;;;;;;3.03;0.65;;;27.30;99.90;;;;;;5268631;28;20082;-76
2022/07/18 12:08:27;;;;;;;6.72;1.13;;;27.30;99.90;;;;;;5268479;28;20106;-81
2022/07/18 12:11:25;;;;;;;4.43;0.95;;;27.00;99.90;;;;;;5268527;28;20700;-78
2022/07/18 12:14:02;;;;;;;7.82;1.33;;;27.20;99.90;;;;;;5268573;28;20456;-73
2022/07/18 12:16:37;;;;;;;7.18;0.95;;;27.00;99.90;;;;;;5268532;28;20036;-79
2022/07/18 12:19:13;;;;;;;7.32;1.20;;;26.90;99.90;;;;;;5268442;28;20043;-83
2022/07/18 12:21:53;;;;;;;6.35;1.10;;;27.00;99.90;;;;;;5268528;28;20446;-78
2022/07/18 12:24:34;;;;;;;4.57;0.70;;;27.10;99.90;;;;;;5268159;28;20040;-72
2022/07/18 12:27:18;;;;;;;3.83;0.90;;;26.90;99.90;;;;;;5268490;28;20024;-76
2022/07/18 12:30:04;;;;;;;2.10;0.70;;;26.70;99.90;;;;;;5268207;28;20469;-78
2022/07/18 12:32:40;;;;;;;3.97;0.73;;;27.20;99.90;;;;;;5268168;28;20031;-73
2022/07/18 12:35:24;;;;;;;6.60;1.00;;;26.90;99.90;;;;;;5268251;28;20108;-75
2022/07/18 12:38:06;;;;;;;9.43;1.00;;;27.10;99.90;;;;;;5266992;28;20056;-79
2022/07/18 12:41:01;;;;;;;6.68;0.98;;;27.50;99.90;;;;;;5268163;28;20024;-76
2022/07/18 12:43:35;;;;;;;10.13;1.13;;;26.90;99.90;;;;;;5268085;28;20054;-77
2022/07/18 12:46:09;;;;;;;7.10;1.30;;;27.30;99.90;;;;;;5268057;28;20036;-73
2022/07/18 12:48:40;;;;;;;6.35;1.02;;;26.60;99.90;;;;;;5268094;28;20023;-76
2022/07/18 12:51:11;;;;;;;5.38;1.38;;;26.30;99.90;;;;;;5268035;28;20032;-77
2022/07/18 12:53:43;;;;;;;9.45;1.17;;;27.10;99.90;;;;;;5268226;28;20027;-82
2022/07/18 12:56:13;;;;;;;6.80;1.30;;;26.90;99.90;;;;;;5272199;28;20044;-74
2022/07/18 12:58:44;;;;;;;5.75;1.30;;;26.70;99.90;;;;;;5272299;28;20379;-75
2022/07/18 13:01:15;;;;;;;5.07;0.98;;;26.80;99.90;;;;;;5271989;28;20059;-79
2022/07/18 13:03:46;;;;;;;5.43;1.13;;;26.90;99.90;;;;;;5272274;28;20028;-81
2022/07/18 13:06:17;;;;;;;6.45;1.00;;;27.00;99.90;;;;;;5272101;28;20029;-81
2022/07/18 13:08:47;;;;;;;4.75;0.95;;;27.30;99.90;;;;;;5272092;28;20028;-76
2022/07/18 13:11:18;;;;;;;7.15;1.00;;;26.40;99.90;;;;;;5272045;28;20028;-80
2022/07/18 13:13:49;;;;;;;5.97;0.82;;;26.20;99.90;;;;;;5271963;28;20020;-80
2022/07/18 13:16:20;;;;;;;8.95;1.20;;;26.00;99.90;;;;;;5271828;28;20036;-73